sensor_id;sensor_type;location;lat;lon;timestamp;pressure;altitude;pressure_sealevel;temperature;humidity
44079;BME280;29744;49.078;12.878;2022-09-09T00:17:39;96227.25;;;19.71;43.10
44079;BME280;29744;49.078;12.878;2022-09-09T00:22:49;96221.78;;;19.71;42.99
44079;BME280;29744;49.078;12.878;2022-09-09T00:27:54;96219.88;;;19.72;42.96
44079;BME280;29744;49.078;12.878;2022-09-09T00:32:58;96201.19;;;19.70;42.76
44079;BME280;29744;49.078;12.878;2022-09-09T00:39:09;96199.97;;;19.68;43.15
44079;BME280;29744;49.078;12.878;2022-09-09T00:43:49;96201.19;;;19.70;42.78
44079;BME280;29744;49.078;12.878;2022-09-09T00:49:03;96206.97;;;19.69;42.59
44079;BME280;29744;49.078;12.878;2022-09-09T01:04:43;96214.00;;;19.70;42.94
44079;BME280;29744;49.078;12.878;2022-09-09T01:09:51;96206.97;;;19.69;42.67
44079;BME280;29744;49.078;12.878;2022-09-09T01:15:00;96211.28;;;19.70;42.88
44079;BME280;29744;49.078;12.878;2022-09-09T01:30:44;96210.06;;;19.67;42.89
44079;BME280;29744;49.078;12.878;2022-09-09T01:35:51;96213.56;;;19.68;43.14
44079;BME280;29744;49.078;12.878;2022-09-09T01:40:54;96216.72;;;19.70;42.98
44079;BME280;29744;49.078;12.878;2022-09-09T01:45:59;96209.72;;;19.69;42.63
44079;BME280;29744;49.078;12.878;2022-09-09T01:51:00;96215.16;;;19.69;43.03
44079;BME280;29744;49.078;12.878;2022-09-09T01:56:07;96208.13;;;19.68;42.88
44079;BME280;29744;49.078;12.878;2022-09-09T02:06:56;96210.84;;;19.68;43.23
44079;BME280;29744;49.078;12.878;2022-09-09T02:12:06;96216.66;;;19.66;42.84
44079;BME280;29744;49.078;12.878;2022-09-09T02:17:14;96204.56;;;19.64;42.79
44079;BME280;29744;49.078;12.878;2022-09-09T02:22:20;96206.56;;;19.67;42.73
44079;BME280;29744;49.078;12.878;2022-09-09T02:27:22;96216.66;;;19.66;42.75
44079;BME280;29744;49.078;12.878;2022-09-09T02:32:23;96207.34;;;19.67;42.50
44079;BME280;29744;49.078;12.878;2022-09-09T02:37:35;96211.22;;;19.66;43.05
44079;BME280;29744;49.078;12.878;2022-09-09T02:42:41;96218.59;;;19.66;42.51
44079;BME280;29744;49.078;12.878;2022-09-09T02:47:54;96219.75;;;19.65;42.74
44079;BME280;29744;49.078;12.878;2022-09-09T02:53:14;96230.97;;;19.63;42.98
44079;BME280;29744;49.078;12.878;2022-09-09T02:58:17;96218.94;;;19.64;42.81
44079;BME280;29744;49.078;12.878;2022-09-09T03:03:18;96228.25;;;19.63;42.66
44079;BME280;29744;49.078;12.878;2022-09-09T03:08:19;96229.84;;;19.64;42.61
44079;BME280;29744;49.078;12.878;2022-09-09T03:13:20;96224.75;;;19.63;42.61
44079;BME280;29744;49.078;12.878;2022-09-09T03:18:21;96225.19;;;19.65;42.63
44079;BME280;29744;49.078;12.878;2022-09-09T03:23:21;96221.25;;;19.62;42.74
44079;BME280;29744;49.078;12.878;2022-09-09T03:28:21;96225.91;;;19.62;42.75
44079;BME280;29744;49.078;12.878;2022-09-09T03:33:23;96223.97;;;19.62;42.59
44079;BME280;29744;49.078;12.878;2022-09-09T03:38:24;96213.09;;;19.62;42.78
44079;BME280;29744;49.078;12.878;2022-09-09T03:43:25;96217.75;;;19.62;42.77
44079;BME280;29744;49.078;12.878;2022-09-09T03:48:26;96208.78;;;19.61;42.64
44079;BME280;29744;49.078;12.878;2022-09-09T03:53:28;96206.88;;;19.62;42.66
44079;BME280;29744;49.078;12.878;2022-09-09T03:58:28;96210.38;;;19.62;42.35
44079;BME280;29744;49.078;12.878;2022-09-09T04:03:29;96200.63;;;19.61;42.77
44079;BME280;29744;49.078;12.878;2022-09-09T04:08:31;96195.19;;;19.61;42.37
44079;BME280;29744;49.078;12.878;2022-09-09T04:13:35;96195.56;;;19.59;43.12
44079;BME280;29744;49.078;12.878;2022-09-09T04:18:37;96195.56;;;19.59;42.93
44079;BME280;29744;49.078;12.878;2022-09-09T04:23:38;96201.78;;;19.60;42.76
44079;BME280;29744;49.078;12.878;2022-09-09T04:28:39;96198.28;;;19.59;42.52
44079;BME280;29744;49.078;12.878;2022-09-09T04:33:39;96198.28;;;19.59;43.06
44079;BME280;29744;49.078;12.878;2022-09-09T04:38:40;96206.44;;;19.59;42.59
44079;BME280;29744;49.078;12.878;2022-09-09T04:43:40;96210.31;;;19.58;42.39
44079;BME280;29744;49.078;12.878;2022-09-09T04:48:40;96203.28;;;19.57;42.51
44079;BME280;29744;49.078;12.878;2022-09-09T04:53:41;96218.81;;;19.57;42.65
44079;BME280;29744;49.078;12.878;2022-09-09T04:58:41;96217.69;;;19.58;42.47
44079;BME280;29744;49.078;12.878;2022-09-09T05:03:46;96203.28;;;19.57;42.97
44079;BME280;29744;49.078;12.878;2022-09-09T05:08:46;96199.78;;;19.57;42.47
44079;BME280;29744;49.078;12.878;2022-09-09T05:13:48;96207.94;;;19.57;42.39
44079;BME280;29744;49.078;12.878;2022-09-09T05:18:50;96210.66;;;19.57;42.96
44079;BME280;29744;49.078;12.878;2022-09-09T05:23:53;96200.94;;;19.56;42.93
44079;BME280;29744;49.078;12.878;2022-09-09T05:28:53;96206.38;;;19.56;42.83
44079;BME280;29744;49.078;12.878;2022-09-09T05:33:55;96206.38;;;19.56;42.88
44079;BME280;29744;49.078;12.878;2022-09-09T05:38:55;96209.47;;;19.54;42.77
44079;BME280;29744;49.078;12.878;2022-09-09T05:43:55;96216.84;;;19.54;42.59
44079;BME280;29744;49.078;12.878;2022-09-09T05:48:56;96212.97;;;19.55;42.46
44079;BME280;29744;49.078;12.878;2022-09-09T05:53:56;96214.13;;;19.54;42.86
44079;BME280;29744;49.078;12.878;2022-09-09T05:58:59;96214.13;;;19.54;42.78
44079;BME280;29744;49.078;12.878;2022-09-09T06:04:01;96218.75;;;19.53;42.67
44079;BME280;29744;49.078;12.878;2022-09-09T06:09:03;96222.28;;;19.54;42.63
44079;BME280;29744;49.078;12.878;2022-09-09T06:14:07;96217.19;;;19.52;42.81
44079;BME280;29744;49.078;12.878;2022-09-09T06:19:07;96224.19;;;19.53;42.96
44079;BME280;29744;49.078;12.878;2022-09-09T06:24:08;96229.28;;;19.55;42.65
44079;BME280;29744;49.078;12.878;2022-09-09T06:29:09;96229.28;;;19.55;42.66
44079;BME280;29744;49.078;12.878;2022-09-09T06:34:09;96215.69;;;19.55;42.53
44079;BME280;29744;49.078;12.878;2022-09-09T06:39:09;96218.75;;;19.53;42.33
44079;BME280;29744;49.078;12.878;2022-09-09T06:44:11;96209.47;;;19.54;42.79
44079;BME280;29744;49.078;12.878;2022-09-09T06:49:15;96218.75;;;19.53;42.27
44079;BME280;29744;49.078;12.878;2022-09-09T06:54:15;96225.00;;;19.54;42.63
44079;BME280;29744;49.078;12.878;2022-09-09T06:59:16;96233.16;;;19.54;42.49
44079;BME280;29744;49.078;12.878;2022-09-09T07:04:16;96231.22;;;19.54;42.93
44079;BME280;29744;49.078;12.878;2022-09-09T07:09:16;96241.66;;;19.52;42.61
44079;BME280;29744;49.078;12.878;2022-09-09T07:14:17;96239.75;;;19.53;42.72
44079;BME280;29744;49.078;12.878;2022-09-09T07:19:17;96240.88;;;19.52;42.72
44079;BME280;29744;49.078;12.878;2022-09-09T07:24:17;96249.47;;;19.54;42.45
44079;BME280;29744;49.078;12.878;2022-09-09T07:29:17;96244.38;;;19.52;42.94
44079;BME280;29744;49.078;12.878;2022-09-09T07:34:18;96253.34;;;19.53;42.78
44079;BME280;29744;49.078;12.878;2022-09-09T07:39:19;96260.72;;;19.52;42.72
44079;BME280;29744;49.078;12.878;2022-09-09T07:44:22;96244.38;;;19.52;42.90
44079;BME280;29744;49.078;12.878;2022-09-09T07:49:22;96248.25;;;19.51;42.46
44079;BME280;29744;49.078;12.878;2022-09-09T07:54:22;96238.16;;;19.52;42.50
44079;BME280;29744;49.078;12.878;2022-09-09T07:59:23;96230.78;;;19.52;42.72
44079;BME280;29744;49.078;12.878;2022-09-09T08:04:25;96242.03;;;19.51;42.61
44079;BME280;29744;49.078;12.878;2022-09-09T08:09:26;96246.97;;;19.45;42.60
44079;BME280;29744;49.078;12.878;2022-09-09T08:14:28;96266.16;;;19.52;42.59
44079;BME280;29744;49.078;12.878;2022-09-09T08:19:29;96270.00;;;19.51;42.52
44079;BME280;29744;49.078;12.878;2022-09-09T08:24:30;96280.09;;;19.51;42.73
44079;BME280;29744;49.078;12.878;2022-09-09T08:29:30;96281.69;;;19.52;42.69
44079;BME280;29744;49.078;12.878;2022-09-09T08:34:30;96286.34;;;19.51;42.42
44079;BME280;29744;49.078;12.878;2022-09-09T08:39:31;96301.50;;;19.52;42.56
44079;BME280;29744;49.078;12.878;2022-09-09T08:44:45;96304.59;;;19.51;42.61
44079;BME280;29744;49.078;12.878;2022-09-09T08:50:25;96299.88;;;19.48;42.74
44079;BME280;29744;49.078;12.878;2022-09-09T09:01:02;96315.03;;;19.49;42.57
44079;BME280;29744;49.078;12.878;2022-09-09T09:11:24;96281.69;;;19.52;42.43
44079;BME280;29744;49.078;12.878;2022-09-09T09:22:28;96279.69;;;19.49;42.61
44079;BME280;29744;49.078;12.878;2022-09-09T09:27:40;96292.56;;;19.52;42.88
44079;BME280;29744;49.078;12.878;2022-09-09T09:32:50;96281.69;;;19.52;42.75
44079;BME280;29744;49.078;12.878;2022-09-09T09:37:52;96303.88;;;19.54;42.57
44079;BME280;29744;49.078;12.878;2022-09-09T09:42:55;96292.63;;;19.55;42.59
44079;BME280;29744;49.078;12.878;2022-09-09T09:48:09;96289.47;;;19.53;43.08
44079;BME280;29744;49.078;12.878;2022-09-09T09:53:29;96286.75;;;19.53;42.44
44079;BME280;29744;49.078;12.878;2022-09-09T09:58:33;96292.63;;;19.55;42.64
44079;BME280;29744;49.078;12.878;2022-09-09T10:03:35;96291.47;;;19.56;42.72
44079;BME280;29744;49.078;12.878;2022-09-09T10:08:46;96288.75;;;19.56;42.84
44079;BME280;29744;49.078;12.878;2022-09-09T10:19:10;96294.56;;;19.55;42.70
44079;BME280;29744;49.078;12.878;2022-09-09T10:29:40;96319.25;;;19.46;43.19
44079;BME280;29744;49.078;12.878;2022-09-09T10:34:56;96314.31;;;19.52;42.78
44079;BME280;29744;49.078;12.878;2022-09-09T10:40:24;96300.72;;;19.52;43.01
44079;BME280;29744;49.078;12.878;2022-09-09T10:46:13;96285.63;;;19.54;42.80
44079;BME280;29744;49.078;12.878;2022-09-09T10:51:22;96285.97;;;19.53;42.81
44079;BME280;29744;49.078;12.878;2022-09-09T10:56:23;96296.50;;;19.54;42.53
44079;BME280;29744;49.078;12.878;2022-09-09T11:01:30;96289.91;;;19.55;42.45
44079;BME280;29744;49.078;12.878;2022-09-09T11:06:37;96304.66;;;19.54;42.60
44079;BME280;29744;49.078;12.878;2022-09-09T11:11:46;96308.94;;;19.55;42.98
44079;BME280;29744;49.078;12.878;2022-09-09T11:16:57;96319.03;;;19.55;42.90
44079;BME280;29744;49.078;12.878;2022-09-09T11:27:27;96293.41;;;19.56;42.83
44079;BME280;29744;49.078;12.878;2022-09-09T11:43:24;96265.06;;;19.57;42.21
44079;BME280;29744;49.078;12.878;2022-09-09T11:48:31;96277.53;;;19.58;42.68
44079;BME280;29744;49.078;12.878;2022-09-09T11:53:32;96284.91;;;19.57;43.04
44079;BME280;29744;49.078;12.878;2022-09-09T11:58:37;96285.31;;;19.59;42.67
44079;BME280;29744;49.078;12.878;2022-09-09T12:03:47;96291.91;;;19.58;42.61
44079;BME280;29744;49.078;12.878;2022-09-09T12:08:55;96292.69;;;19.59;42.32
44079;BME280;29744;49.078;12.878;2022-09-09T12:14:00;96286.09;;;19.60;42.62
44079;BME280;29744;49.078;12.878;2022-09-09T12:19:12;96281.47;;;19.61;42.57
44079;BME280;29744;49.078;12.878;2022-09-09T12:24:26;96272.50;;;19.60;42.30
44079;BME280;29744;49.078;12.878;2022-09-09T12:29:43;96280.66;;;19.60;42.28
44079;BME280;29744;49.078;12.878;2022-09-09T12:34:53;96279.09;;;19.59;42.83
44079;BME280;29744;49.078;12.878;2022-09-09T12:39:56;96271.72;;;19.59;42.45
44079;BME280;29744;49.078;12.878;2022-09-09T12:44:59;96258.91;;;19.60;42.57
44079;BME280;29744;49.078;12.878;2022-09-09T12:50:00;96262.78;;;19.59;42.84
44079;BME280;29744;49.078;12.878;2022-09-09T12:55:02;96253.81;;;19.58;42.62
44079;BME280;29744;49.078;12.878;2022-09-09T13:00:15;96249.19;;;19.59;42.90
44079;BME280;29744;49.078;12.878;2022-09-09T13:05:19;96239.44;;;19.58;42.46
44079;BME280;29744;49.078;12.878;2022-09-09T13:10:26;96236.72;;;19.58;42.68
44079;BME280;29744;49.078;12.878;2022-09-09T13:15:29;96221.19;;;19.58;42.72
44079;BME280;29744;49.078;12.878;2022-09-09T13:20:29;96212.25;;;19.58;42.65
44079;BME280;29744;49.078;12.878;2022-09-09T13:25:31;96218.81;;;19.57;42.84
44079;BME280;29744;49.078;12.878;2022-09-09T13:30:35;96212.25;;;19.58;42.77
44079;BME280;29744;49.078;12.878;2022-09-09T13:35:56;96206.38;;;19.56;42.48
44079;BME280;29744;49.078;12.878;2022-09-09T13:40:57;96203.66;;;19.56;42.59
44079;BME280;29744;49.078;12.878;2022-09-09T13:46:02;96206.00;;;19.57;42.96
44079;BME280;29744;49.078;12.878;2022-09-09T13:51:03;96202.50;;;19.57;42.98
44079;BME280;29744;49.078;12.878;2022-09-09T13:56:07;96202.50;;;19.57;42.88
44079;BME280;29744;49.078;12.878;2022-09-09T14:01:08;96201.72;;;19.56;42.70
44079;BME280;29744;49.078;12.878;2022-09-09T14:06:11;96190.84;;;19.56;42.65
44079;BME280;29744;49.078;12.878;2022-09-09T14:11:12;96193.94;;;19.55;42.59
44079;BME280;29744;49.078;12.878;2022-09-09T14:16:13;96184.19;;;19.54;42.67
44079;BME280;29744;49.078;12.878;2022-09-09T14:21:14;96181.47;;;19.54;42.72
44079;BME280;29744;49.078;12.878;2022-09-09T14:26:19;96174.09;;;19.54;42.50
44079;BME280;29744;49.078;12.878;2022-09-09T14:31:22;96172.16;;;19.55;42.70
44079;BME280;29744;49.078;12.878;2022-09-09T14:36:22;96186.91;;;19.54;42.92
44079;BME280;29744;49.078;12.878;2022-09-09T14:41:24;96176.03;;;19.54;42.54
44079;BME280;29744;49.078;12.878;2022-09-09T14:46:25;96187.69;;;19.54;42.72
44079;BME280;29744;49.078;12.878;2022-09-09T14:51:26;96193.94;;;19.55;42.90
44079;BME280;29744;49.078;12.878;2022-09-09T14:56:32;96199.38;;;19.55;43.18
44079;BME280;29744;49.078;12.878;2022-09-09T15:01:34;96189.63;;;19.54;42.42
44079;BME280;29744;49.078;12.878;2022-09-09T15:06:35;96181.06;;;19.52;42.61
44079;BME280;29744;49.078;12.878;2022-09-09T15:11:38;96191.19;;;19.55;42.73
44079;BME280;29744;49.078;12.878;2022-09-09T15:16:39;96185.75;;;19.55;42.64
44079;BME280;29744;49.078;12.878;2022-09-09T15:21:40;96183.03;;;19.55;42.67
44079;BME280;29744;49.078;12.878;2022-09-09T15:26:40;96192.34;;;19.54;42.97
44079;BME280;29744;49.078;12.878;2022-09-09T15:31:40;96186.91;;;19.54;42.79
44079;BME280;29744;49.078;12.878;2022-09-09T15:36:43;96184.97;;;19.54;43.17
44079;BME280;29744;49.078;12.878;2022-09-09T15:41:45;96184.97;;;19.54;42.57
44079;BME280;29744;49.078;12.878;2022-09-09T15:46:51;96182.63;;;19.53;42.61
44079;BME280;29744;49.078;12.878;2022-09-09T15:51:58;96183.41;;;19.53;42.64
44079;BME280;29744;49.078;12.878;2022-09-09T15:57:04;96175.25;;;19.53;42.55
44079;BME280;29744;49.078;12.878;2022-09-09T16:02:04;96165.50;;;19.52;42.74
44079;BME280;29744;49.078;12.878;2022-09-09T16:07:05;96167.44;;;19.52;42.75
44079;BME280;29744;49.078;12.878;2022-09-09T16:12:05;96172.88;;;19.52;42.82
44079;BME280;29744;49.078;12.878;2022-09-09T16:17:06;96176.75;;;19.51;43.10
44079;BME280;29744;49.078;12.878;2022-09-09T16:22:06;96174.34;;;19.46;43.13
44079;BME280;29744;49.078;12.878;2022-09-09T16:27:07;96176.75;;;19.51;42.59
44079;BME280;29744;49.078;12.878;2022-09-09T16:32:08;96185.69;;;19.51;42.81
44079;BME280;29744;49.078;12.878;2022-09-09T16:37:09;96183.72;;;19.48;42.96
44079;BME280;29744;49.078;12.878;2022-09-09T16:42:10;96189.94;;;19.49;42.75
44079;BME280;29744;49.078;12.878;2022-09-09T16:47:11;96202.38;;;19.50;42.81
44079;BME280;29744;49.078;12.878;2022-09-09T16:52:11;96207.81;;;19.50;42.67
44079;BME280;29744;49.078;12.878;2022-09-09T16:57:11;96199.19;;;19.44;42.58
44079;BME280;29744;49.078;12.878;2022-09-09T17:02:11;96202.75;;;19.48;43.01
44079;BME280;29744;49.078;12.878;2022-09-09T17:07:12;96201.97;;;19.48;42.86
44079;BME280;29744;49.078;12.878;2022-09-09T17:12:12;96201.16;;;19.47;42.83
44079;BME280;29744;49.078;12.878;2022-09-09T17:17:12;96212.06;;;19.47;43.04
44079;BME280;29744;49.078;12.878;2022-09-09T17:22:13;96218.28;;;19.48;42.46
44079;BME280;29744;49.078;12.878;2022-09-09T17:27:13;96212.41;;;19.46;42.77
44079;BME280;29744;49.078;12.878;2022-09-09T17:32:13;96198.03;;;19.45;42.78
44079;BME280;29744;49.078;12.878;2022-09-09T17:37:14;96201.53;;;19.46;42.87
44079;BME280;29744;49.078;12.878;2022-09-09T17:42:14;96201.53;;;19.46;42.78
44079;BME280;29744;49.078;12.878;2022-09-09T17:47:14;96206.19;;;19.45;42.53
44079;BME280;29744;49.078;12.878;2022-09-09T17:52:15;96216.28;;;19.45;42.53
44079;BME280;29744;49.078;12.878;2022-09-09T17:57:16;96241.53;;;19.45;42.59
44079;BME280;29744;49.078;12.878;2022-09-09T18:02:19;96249.69;;;19.45;42.89
44079;BME280;29744;49.078;12.878;2022-09-09T18:07:19;96259.78;;;19.45;42.87
44079;BME280;29744;49.078;12.878;2022-09-09T18:12:19;96263.66;;;19.44;42.77
44079;BME280;29744;49.078;12.878;2022-09-09T18:17:19;96268.31;;;19.43;42.64
44079;BME280;29744;49.078;12.878;2022-09-09T18:22:20;96270.25;;;19.43;42.88
44079;BME280;29744;49.078;12.878;2022-09-09T18:27:20;96269.09;;;19.44;42.86
44079;BME280;29744;49.078;12.878;2022-09-09T18:32:20;96274.53;;;19.44;42.97
44079;BME280;29744;49.078;12.878;2022-09-09T18:37:20;96279.97;;;19.44;42.70
44079;BME280;29744;49.078;12.878;2022-09-09T18:42:21;96289.28;;;19.43;43.12
44079;BME280;29744;49.078;12.878;2022-09-09T18:47:21;96300.16;;;19.43;43.01
44079;BME280;29744;49.078;12.878;2022-09-09T18:52:23;96315.69;;;19.42;42.97
44079;BME280;29744;49.078;12.878;2022-09-09T18:57:24;96325.00;;;19.41;42.98
44079;BME280;29744;49.078;12.878;2022-09-09T19:02:24;96340.94;;;19.43;42.76
44079;BME280;29744;49.078;12.878;2022-09-09T19:07:25;96340.53;;;19.41;42.93
44079;BME280;29744;49.078;12.878;2022-09-09T19:12:25;96354.91;;;19.41;42.87
44079;BME280;29744;49.078;12.878;2022-09-09T19:17:25;96349.09;;;19.43;42.89
44079;BME280;29744;49.078;12.878;2022-09-09T19:22:27;96352.97;;;19.42;42.96
44079;BME280;29744;49.078;12.878;2022-09-09T19:27:28;96333.94;;;19.42;42.73
44079;BME280;29744;49.078;12.878;2022-09-09T19:32:29;96334.28;;;19.40;43.20
44079;BME280;29744;49.078;12.878;2022-09-09T19:37:29;96354.13;;;19.41;42.89
44079;BME280;29744;49.078;12.878;2022-09-09T19:42:30;96335.06;;;19.41;42.86
44079;BME280;29744;49.078;12.878;2022-09-09T19:47:31;96330.78;;;19.40;42.77
44079;BME280;29744;49.078;12.878;2022-09-09T19:52:31;96331.13;;;19.38;42.56
44079;BME280;29744;49.078;12.878;2022-09-09T19:57:31;96344.38;;;19.40;43.04
44079;BME280;29744;49.078;12.878;2022-09-09T20:02:32;96340.09;;;19.39;42.79
44079;BME280;29744;49.078;12.878;2022-09-09T20:07:32;96357.53;;;19.38;43.31
44079;BME280;29744;49.078;12.878;2022-09-09T20:12:32;96370.00;;;19.39;43.03
44079;BME280;29744;49.078;12.878;2022-09-09T20:17:33;96348.25;;;19.39;43.01
44079;BME280;29744;49.078;12.878;2022-09-09T20:22:33;96319.13;;;19.39;42.60
44079;BME280;29744;49.078;12.878;2022-09-09T20:27:33;96314.03;;;19.38;43.06
44079;BME280;29744;49.078;12.878;2022-09-09T20:32:34;96321.06;;;19.39;42.90
44079;BME280;29744;49.078;12.878;2022-09-09T20:37:35;96336.59;;;19.38;42.80
44079;BME280;29744;49.078;12.878;2022-09-09T20:42:35;96332.28;;;19.37;42.64
44079;BME280;29744;49.078;12.878;2022-09-09T20:47:35;96334.22;;;19.37;42.89
44079;BME280;29744;49.078;12.878;2022-09-09T20:52:35;96335.00;;;19.37;42.96
44079;BME280;29744;49.078;12.878;2022-09-09T20:57:36;96334.22;;;19.37;43.09
44079;BME280;29744;49.078;12.878;2022-09-09T21:02:36;96325.28;;;19.36;43.06
44079;BME280;29744;49.078;12.878;2022-09-09T21:07:37;96317.91;;;19.37;42.55
44079;BME280;29744;49.078;12.878;2022-09-09T21:12:37;96312.47;;;19.37;43.12
44079;BME280;29744;49.078;12.878;2022-09-09T21:17:38;96311.69;;;19.36;42.95
44079;BME280;29744;49.078;12.878;2022-09-09T21:22:39;96312.81;;;19.35;42.64
44079;BME280;29744;49.078;12.878;2022-09-09T21:27:39;96310.09;;;19.35;42.58
44079;BME280;29744;49.078;12.878;2022-09-09T21:32:39;96303.88;;;19.35;42.87
44079;BME280;29744;49.078;12.878;2022-09-09T21:37:40;96310.09;;;19.35;42.93
44079;BME280;29744;49.078;12.878;2022-09-09T21:42:41;96320.19;;;19.35;42.84
44079;BME280;29744;49.078;12.878;2022-09-09T21:47:43;96320.19;;;19.35;42.55
44079;BME280;29744;49.078;12.878;2022-09-09T21:52:45;96316.69;;;19.34;42.77
44079;BME280;29744;49.078;12.878;2022-09-09T21:57:46;96315.91;;;19.34;43.08
44079;BME280;29744;49.078;12.878;2022-09-09T22:02:46;96315.91;;;19.34;42.97
44079;BME280;29744;49.078;12.878;2022-09-09T22:07:47;96310.47;;;19.34;42.82
44079;BME280;29744;49.078;12.878;2022-09-09T22:12:47;96305.38;;;19.32;42.47
44079;BME280;29744;49.078;12.878;2022-09-09T22:17:47;96310.00;;;19.32;42.94
44079;BME280;29744;49.078;12.878;2022-09-09T22:22:48;96310.00;;;19.32;42.65
44079;BME280;29744;49.078;12.878;2022-09-09T22:27:48;96306.16;;;19.33;42.92
44079;BME280;29744;49.078;12.878;2022-09-09T22:32:48;96317.03;;;19.33;42.91
44079;BME280;29744;49.078;12.878;2022-09-09T22:37:49;96315.44;;;19.32;42.78
44079;BME280;29744;49.078;12.878;2022-09-09T22:42:50;96323.59;;;19.32;42.67
44079;BME280;29744;49.078;12.878;2022-09-09T22:47:51;96334.47;;;19.32;42.52
44079;BME280;29744;49.078;12.878;2022-09-09T22:52:51;96346.50;;;19.31;42.96
44079;BME280;29744;49.078;12.878;2022-09-09T22:57:52;96347.28;;;19.31;43.01
44079;BME280;29744;49.078;12.878;2022-09-09T23:02:53;96346.84;;;19.29;42.83
44079;BME280;29744;49.078;12.878;2022-09-09T23:07:53;96346.50;;;19.31;42.89
44079;BME280;29744;49.078;12.878;2022-09-09T23:12:57;96360.09;;;19.31;43.09
44079;BME280;29744;49.078;12.878;2022-09-09T23:17:57;96363.16;;;19.29;43.10
44079;BME280;29744;49.078;12.878;2022-09-09T23:22:58;96380.25;;;19.30;42.61
44079;BME280;29744;49.078;12.878;2022-09-09T23:27:58;96351.16;;;19.30;43.15
44079;BME280;29744;49.078;12.878;2022-09-09T23:32:58;96358.50;;;19.30;43.00
44079;BME280;29744;49.078;12.878;2022-09-09T23:37:59;96350.34;;;19.30;43.16
44079;BME280;29744;49.078;12.878;2022-09-09T23:42:59;96341.41;;;19.29;42.70
44079;BME280;29744;49.078;12.878;2022-09-09T23:47:59;96337.91;;;19.28;43.29
44079;BME280;29744;49.078;12.878;2022-09-09T23:53:00;96336.75;;;19.30;43.27
44079;BME280;29744;49.078;12.878;2022-09-09T23:58:01;96326.25;;;19.28;42.93
